sensor_id;sensor_type;location;lat;lon;timestamp;P1;durP1;ratioP1;P2;durP2;ratioP2
56319;SDS011;42226;42.382;23.748;2022-07-03T00:02:14;8.32;;;6.93;;
56319;SDS011;42226;42.382;23.748;2022-07-03T00:04:40;9.18;;;8.05;;
56319;SDS011;42226;42.382;23.748;2022-07-03T00:07:07;8.77;;;7.45;;
56319;SDS011;42226;42.382;23.748;2022-07-03T00:09:34;10.15;;;9.00;;
56319;SDS011;42226;42.382;23.748;2022-07-03T00:12:00;8.95;;;8.15;;
56319;SDS011;42226;42.382;23.748;2022-07-03T00:14:27;11.45;;;8.73;;
56319;SDS011;42226;42.382;23.748;2022-07-03T00:16:54;9.77;;;8.77;;
56319;SDS011;42226;42.382;23.748;2022-07-03T00:19:20;11.98;;;8.65;;
56319;SDS011;42226;42.382;23.748;2022-07-03T00:21:54;9.85;;;8.85;;
56319;SDS011;42226;42.382;23.748;2022-07-03T00:24:26;8.48;;;7.78;;
56319;SDS011;42226;42.382;23.748;2022-07-03T00:29:29;8.05;;;7.28;;
56319;SDS011;42226;42.382;23.748;2022-07-03T00:34:31;8.10;;;7.32;;
56319;SDS011;42226;42.382;23.748;2022-07-03T00:36:58;8.63;;;7.75;;
56319;SDS011;42226;42.382;23.748;2022-07-03T00:39:27;8.98;;;8.13;;
56319;SDS011;42226;42.382;23.748;2022-07-03T00:42:00;8.82;;;8.00;;
56319;SDS011;42226;42.382;23.748;2022-07-03T00:46:58;12.73;;;8.23;;
56319;SDS011;42226;42.382;23.748;2022-07-03T00:49:26;9.85;;;8.00;;
56319;SDS011;42226;42.382;23.748;2022-07-03T00:51:54;8.80;;;7.90;;
56319;SDS011;42226;42.382;23.748;2022-07-03T00:54:23;9.38;;;7.90;;
56319;SDS011;42226;42.382;23.748;2022-07-03T00:56:51;8.20;;;7.40;;
56319;SDS011;42226;42.382;23.748;2022-07-03T00:59:20;8.50;;;7.80;;
56319;SDS011;42226;42.382;23.748;2022-07-03T01:01:47;9.52;;;8.00;;
56319;SDS011;42226;42.382;23.748;2022-07-03T01:04:28;9.13;;;8.23;;
56319;SDS011;42226;42.382;23.748;2022-07-03T01:10:36;9.88;;;8.13;;
56319;SDS011;42226;42.382;23.748;2022-07-03T01:16:40;10.40;;;9.40;;
56319;SDS011;42226;42.382;23.748;2022-07-03T01:27:58;11.55;;;8.93;;
56319;SDS011;42226;42.382;23.748;2022-07-03T01:30:43;8.88;;;8.07;;
56319;SDS011;42226;42.382;23.748;2022-07-03T01:33:26;10.10;;;9.15;;
56319;SDS011;42226;42.382;23.748;2022-07-03T01:38:27;9.10;;;8.30;;
56319;SDS011;42226;42.382;23.748;2022-07-03T01:40:56;9.88;;;8.65;;
56319;SDS011;42226;42.382;23.748;2022-07-03T01:43:28;11.88;;;9.32;;
56319;SDS011;42226;42.382;23.748;2022-07-03T01:45:58;9.30;;;8.50;;
56319;SDS011;42226;42.382;23.748;2022-07-03T01:48:27;9.82;;;8.43;;
56319;SDS011;42226;42.382;23.748;2022-07-03T01:50:56;9.63;;;8.50;;
56319;SDS011;42226;42.382;23.748;2022-07-03T01:53:24;9.77;;;8.77;;
56319;SDS011;42226;42.382;23.748;2022-07-03T01:55:57;10.05;;;8.60;;
56319;SDS011;42226;42.382;23.748;2022-07-03T01:58:25;9.60;;;8.52;;
56319;SDS011;42226;42.382;23.748;2022-07-03T02:03:50;12.50;;;9.57;;
56319;SDS011;42226;42.382;23.748;2022-07-03T02:09:10;11.50;;;10.00;;
56319;SDS011;42226;42.382;23.748;2022-07-03T02:11:39;10.98;;;9.93;;
56319;SDS011;42226;42.382;23.748;2022-07-03T02:19:55;10.77;;;9.77;;
56319;SDS011;42226;42.382;23.748;2022-07-03T02:22:46;9.95;;;9.05;;
56319;SDS011;42226;42.382;23.748;2022-07-03T02:25:22;9.32;;;8.52;;
56319;SDS011;42226;42.382;23.748;2022-07-03T02:30:41;12.55;;;9.50;;
56319;SDS011;42226;42.382;23.748;2022-07-03T02:33:11;9.95;;;8.95;;
56319;SDS011;42226;42.382;23.748;2022-07-03T02:35:39;8.90;;;8.02;;
56319;SDS011;42226;42.382;23.748;2022-07-03T02:38:10;9.68;;;7.85;;
56319;SDS011;42226;42.382;23.748;2022-07-03T02:40:43;9.10;;;7.80;;
56319;SDS011;42226;42.382;23.748;2022-07-03T02:43:31;8.55;;;7.75;;
56319;SDS011;42226;42.382;23.748;2022-07-03T02:46:17;11.88;;;10.65;;
56319;SDS011;42226;42.382;23.748;2022-07-03T02:54:51;11.27;;;10.07;;
56319;SDS011;42226;42.382;23.748;2022-07-03T02:57:20;10.50;;;9.15;;
56319;SDS011;42226;42.382;23.748;2022-07-03T02:59:57;12.43;;;10.63;;
56319;SDS011;42226;42.382;23.748;2022-07-03T03:02:51;11.65;;;9.93;;
56319;SDS011;42226;42.382;23.748;2022-07-03T03:05:28;11.15;;;10.15;;
56319;SDS011;42226;42.382;23.748;2022-07-03T03:08:14;10.65;;;9.57;;
56319;SDS011;42226;42.382;23.748;2022-07-03T03:10:59;11.00;;;9.88;;
56319;SDS011;42226;42.382;23.748;2022-07-03T03:13:50;11.32;;;9.55;;
56319;SDS011;42226;42.382;23.748;2022-07-03T03:16:24;12.52;;;10.30;;
56319;SDS011;42226;42.382;23.748;2022-07-03T03:18:52;9.60;;;8.48;;
56319;SDS011;42226;42.382;23.748;2022-07-03T03:21:19;10.40;;;9.40;;
56319;SDS011;42226;42.382;23.748;2022-07-03T03:23:49;11.65;;;10.60;;
56319;SDS011;42226;42.382;23.748;2022-07-03T03:28:50;11.00;;;9.85;;
56319;SDS011;42226;42.382;23.748;2022-07-03T03:31:20;11.60;;;10.40;;
56319;SDS011;42226;42.382;23.748;2022-07-03T03:33:47;11.02;;;10.02;;
56319;SDS011;42226;42.382;23.748;2022-07-03T03:36:17;9.88;;;8.65;;
56319;SDS011;42226;42.382;23.748;2022-07-03T03:38:46;11.10;;;9.55;;
56319;SDS011;42226;42.382;23.748;2022-07-03T03:41:14;11.40;;;9.32;;
56319;SDS011;42226;42.382;23.748;2022-07-03T03:43:41;11.55;;;8.55;;
56319;SDS011;42226;42.382;23.748;2022-07-03T03:46:07;9.65;;;8.85;;
56319;SDS011;42226;42.382;23.748;2022-07-03T03:48:34;10.13;;;8.95;;
56319;SDS011;42226;42.382;23.748;2022-07-03T03:51:01;11.40;;;9.80;;
56319;SDS011;42226;42.382;23.748;2022-07-03T03:53:29;11.60;;;10.38;;
56319;SDS011;42226;42.382;23.748;2022-07-03T03:56:12;9.27;;;8.43;;
56319;SDS011;42226;42.382;23.748;2022-07-03T03:58:43;9.60;;;8.60;;
56319;SDS011;42226;42.382;23.748;2022-07-03T04:01:10;11.07;;;8.82;;
56319;SDS011;42226;42.382;23.748;2022-07-03T04:03:37;9.05;;;8.15;;
56319;SDS011;42226;42.382;23.748;2022-07-03T04:06:06;8.50;;;7.60;;
56319;SDS011;42226;42.382;23.748;2022-07-03T04:08:33;8.63;;;7.55;;
56319;SDS011;42226;42.382;23.748;2022-07-03T04:10:59;11.13;;;8.20;;
56319;SDS011;42226;42.382;23.748;2022-07-03T04:13:26;10.50;;;8.82;;
56319;SDS011;42226;42.382;23.748;2022-07-03T04:15:53;9.13;;;8.32;;
56319;SDS011;42226;42.382;23.748;2022-07-03T04:18:20;10.27;;;9.15;;
56319;SDS011;42226;42.382;23.748;2022-07-03T04:20:47;12.68;;;11.30;;
56319;SDS011;42226;42.382;23.748;2022-07-03T04:23:13;10.10;;;9.05;;
56319;SDS011;42226;42.382;23.748;2022-07-03T04:25:40;10.90;;;9.00;;
56319;SDS011;42226;42.382;23.748;2022-07-03T04:28:06;9.73;;;8.23;;
56319;SDS011;42226;42.382;23.748;2022-07-03T04:30:34;9.48;;;8.50;;
56319;SDS011;42226;42.382;23.748;2022-07-03T04:33:00;9.02;;;8.13;;
56319;SDS011;42226;42.382;23.748;2022-07-03T04:35:27;9.38;;;8.48;;
56319;SDS011;42226;42.382;23.748;2022-07-03T04:37:53;10.23;;;9.23;;
56319;SDS011;42226;42.382;23.748;2022-07-03T04:40:20;9.25;;;8.35;;
56319;SDS011;42226;42.382;23.748;2022-07-03T04:42:47;9.20;;;8.40;;
56319;SDS011;42226;42.382;23.748;2022-07-03T04:45:13;10.52;;;8.57;;
56319;SDS011;42226;42.382;23.748;2022-07-03T04:47:40;10.00;;;9.10;;
56319;SDS011;42226;42.382;23.748;2022-07-03T04:50:06;9.45;;;8.65;;
56319;SDS011;42226;42.382;23.748;2022-07-03T04:52:33;9.18;;;8.27;;
56319;SDS011;42226;42.382;23.748;2022-07-03T04:55:00;9.25;;;8.02;;
56319;SDS011;42226;42.382;23.748;2022-07-03T04:57:27;9.50;;;7.25;;
56319;SDS011;42226;42.382;23.748;2022-07-03T04:59:54;8.48;;;7.50;;
56319;SDS011;42226;42.382;23.748;2022-07-03T05:02:20;8.77;;;7.88;;
56319;SDS011;42226;42.382;23.748;2022-07-03T05:04:47;8.35;;;7.63;;
56319;SDS011;42226;42.382;23.748;2022-07-03T05:07:13;9.60;;;8.70;;
56319;SDS011;42226;42.382;23.748;2022-07-03T05:09:40;10.02;;;8.20;;
56319;SDS011;42226;42.382;23.748;2022-07-03T05:12:06;9.98;;;7.90;;
56319;SDS011;42226;42.382;23.748;2022-07-03T05:14:33;9.63;;;8.70;;
56319;SDS011;42226;42.382;23.748;2022-07-03T05:16:59;8.18;;;7.47;;
56319;SDS011;42226;42.382;23.748;2022-07-03T05:19:26;8.68;;;7.90;;
56319;SDS011;42226;42.382;23.748;2022-07-03T05:21:53;9.35;;;8.07;;
56319;SDS011;42226;42.382;23.748;2022-07-03T05:24:19;9.10;;;8.23;;
56319;SDS011;42226;42.382;23.748;2022-07-03T05:26:46;9.23;;;7.60;;
56319;SDS011;42226;42.382;23.748;2022-07-03T05:29:12;8.48;;;7.68;;
56319;SDS011;42226;42.382;23.748;2022-07-03T05:31:39;8.55;;;7.55;;
56319;SDS011;42226;42.382;23.748;2022-07-03T05:34:05;8.93;;;8.13;;
56319;SDS011;42226;42.382;23.748;2022-07-03T05:36:33;8.88;;;8.18;;
56319;SDS011;42226;42.382;23.748;2022-07-03T05:38:59;8.48;;;7.68;;
56319;SDS011;42226;42.382;23.748;2022-07-03T05:41:44;9.18;;;7.70;;
56319;SDS011;42226;42.382;23.748;2022-07-03T05:44:11;8.93;;;8.13;;
56319;SDS011;42226;42.382;23.748;2022-07-03T05:46:37;9.00;;;8.20;;
56319;SDS011;42226;42.382;23.748;2022-07-03T05:49:04;8.95;;;8.07;;
56319;SDS011;42226;42.382;23.748;2022-07-03T05:51:30;8.07;;;7.38;;
56319;SDS011;42226;42.382;23.748;2022-07-03T05:53:57;9.60;;;8.70;;
56319;SDS011;42226;42.382;23.748;2022-07-03T05:56:23;10.85;;;8.48;;
56319;SDS011;42226;42.382;23.748;2022-07-03T05:58:50;9.32;;;8.32;;
56319;SDS011;42226;42.382;23.748;2022-07-03T06:01:17;8.38;;;7.57;;
56319;SDS011;42226;42.382;23.748;2022-07-03T06:03:43;9.23;;;8.07;;
56319;SDS011;42226;42.382;23.748;2022-07-03T06:06:10;9.35;;;8.43;;
56319;SDS011;42226;42.382;23.748;2022-07-03T06:08:36;9.68;;;8.75;;
56319;SDS011;42226;42.382;23.748;2022-07-03T06:11:03;10.68;;;9.20;;
56319;SDS011;42226;42.382;23.748;2022-07-03T06:13:29;9.23;;;8.30;;
56319;SDS011;42226;42.382;23.748;2022-07-03T06:15:56;9.43;;;8.13;;
56319;SDS011;42226;42.382;23.748;2022-07-03T06:18:22;8.75;;;7.85;;
56319;SDS011;42226;42.382;23.748;2022-07-03T06:20:49;8.82;;;8.00;;
56319;SDS011;42226;42.382;23.748;2022-07-03T06:23:15;8.40;;;7.57;;
56319;SDS011;42226;42.382;23.748;2022-07-03T06:25:42;9.27;;;8.38;;
56319;SDS011;42226;42.382;23.748;2022-07-03T06:28:08;9.23;;;8.43;;
56319;SDS011;42226;42.382;23.748;2022-07-03T06:30:35;9.45;;;8.50;;
56319;SDS011;42226;42.382;23.748;2022-07-03T06:33:01;8.50;;;7.70;;
56319;SDS011;42226;42.382;23.748;2022-07-03T06:35:28;9.50;;;7.75;;
56319;SDS011;42226;42.382;23.748;2022-07-03T06:37:54;9.15;;;8.18;;
56319;SDS011;42226;42.382;23.748;2022-07-03T06:40:25;8.90;;;7.95;;
56319;SDS011;42226;42.382;23.748;2022-07-03T06:42:51;10.93;;;8.68;;
56319;SDS011;42226;42.382;23.748;2022-07-03T06:45:18;9.55;;;8.70;;
56319;SDS011;42226;42.382;23.748;2022-07-03T06:47:44;9.07;;;8.27;;
56319;SDS011;42226;42.382;23.748;2022-07-03T06:50:11;8.98;;;7.95;;
56319;SDS011;42226;42.382;23.748;2022-07-03T06:52:37;9.60;;;8.25;;
56319;SDS011;42226;42.382;23.748;2022-07-03T06:55:04;11.05;;;8.35;;
56319;SDS011;42226;42.382;23.748;2022-07-03T06:57:32;10.43;;;8.05;;
56319;SDS011;42226;42.382;23.748;2022-07-03T06:59:58;10.15;;;8.20;;
56319;SDS011;42226;42.382;23.748;2022-07-03T07:02:25;9.00;;;8.20;;
56319;SDS011;42226;42.382;23.748;2022-07-03T07:04:51;9.02;;;7.85;;
56319;SDS011;42226;42.382;23.748;2022-07-03T07:07:18;9.65;;;7.82;;
56319;SDS011;42226;42.382;23.748;2022-07-03T07:09:45;10.35;;;8.02;;
56319;SDS011;42226;42.382;23.748;2022-07-03T07:12:11;8.82;;;7.65;;
56319;SDS011;42226;42.382;23.748;2022-07-03T07:14:38;9.50;;;8.48;;
56319;SDS011;42226;42.382;23.748;2022-07-03T07:17:05;11.25;;;8.60;;
56319;SDS011;42226;42.382;23.748;2022-07-03T07:19:32;8.95;;;8.10;;
56319;SDS011;42226;42.382;23.748;2022-07-03T07:21:59;7.75;;;6.95;;
56319;SDS011;42226;42.382;23.748;2022-07-03T07:24:26;8.48;;;7.65;;
56319;SDS011;42226;42.382;23.748;2022-07-03T07:26:54;9.02;;;7.90;;
56319;SDS011;42226;42.382;23.748;2022-07-03T07:29:21;7.88;;;7.03;;
56319;SDS011;42226;42.382;23.748;2022-07-03T07:31:47;7.72;;;6.53;;
56319;SDS011;42226;42.382;23.748;2022-07-03T07:34:14;7.57;;;6.97;;
56319;SDS011;42226;42.382;23.748;2022-07-03T07:36:41;7.75;;;6.72;;
56319;SDS011;42226;42.382;23.748;2022-07-03T07:39:08;7.22;;;6.38;;
56319;SDS011;42226;42.382;23.748;2022-07-03T07:41:35;8.02;;;6.88;;
56319;SDS011;42226;42.382;23.748;2022-07-03T07:44:03;7.32;;;6.72;;
56319;SDS011;42226;42.382;23.748;2022-07-03T07:46:31;8.30;;;5.97;;
56319;SDS011;42226;42.382;23.748;2022-07-03T07:48:58;7.55;;;6.35;;
56319;SDS011;42226;42.382;23.748;2022-07-03T07:51:25;7.35;;;6.13;;
56319;SDS011;42226;42.382;23.748;2022-07-03T07:53:52;6.82;;;6.03;;
56319;SDS011;42226;42.382;23.748;2022-07-03T07:56:22;6.85;;;6.20;;
56319;SDS011;42226;42.382;23.748;2022-07-03T07:58:50;8.70;;;5.72;;
56319;SDS011;42226;42.382;23.748;2022-07-03T08:01:18;6.05;;;5.45;;
56319;SDS011;42226;42.382;23.748;2022-07-03T08:04:04;7.10;;;6.28;;
56319;SDS011;42226;42.382;23.748;2022-07-03T08:06:49;7.40;;;5.40;;
56319;SDS011;42226;42.382;23.748;2022-07-03T08:09:16;10.48;;;5.90;;
56319;SDS011;42226;42.382;23.748;2022-07-03T08:11:42;6.40;;;4.95;;
56319;SDS011;42226;42.382;23.748;2022-07-03T08:14:09;7.45;;;5.20;;
56319;SDS011;42226;42.382;23.748;2022-07-03T08:16:36;5.53;;;4.57;;
56319;SDS011;42226;42.382;23.748;2022-07-03T08:19:07;6.65;;;4.65;;
56319;SDS011;42226;42.382;23.748;2022-07-03T08:21:34;5.97;;;4.90;;
56319;SDS011;42226;42.382;23.748;2022-07-03T08:24:01;5.13;;;4.63;;
56319;SDS011;42226;42.382;23.748;2022-07-03T08:26:28;6.28;;;4.80;;
56319;SDS011;42226;42.382;23.748;2022-07-03T08:28:54;5.70;;;5.10;;
56319;SDS011;42226;42.382;23.748;2022-07-03T08:31:21;5.30;;;4.75;;
56319;SDS011;42226;42.382;23.748;2022-07-03T08:33:48;6.60;;;4.90;;
56319;SDS011;42226;42.382;23.748;2022-07-03T08:36:15;10.13;;;5.30;;
56319;SDS011;42226;42.382;23.748;2022-07-03T08:38:42;7.35;;;4.95;;
56319;SDS011;42226;42.382;23.748;2022-07-03T08:41:08;5.15;;;4.65;;
56319;SDS011;42226;42.382;23.748;2022-07-03T08:43:36;8.50;;;4.68;;
56319;SDS011;42226;42.382;23.748;2022-07-03T08:46:04;5.45;;;4.90;;
56319;SDS011;42226;42.382;23.748;2022-07-03T08:48:32;5.07;;;4.57;;
56319;SDS011;42226;42.382;23.748;2022-07-03T08:51:00;7.82;;;4.75;;
56319;SDS011;42226;42.382;23.748;2022-07-03T08:53:28;6.18;;;4.40;;
56319;SDS011;42226;42.382;23.748;2022-07-03T08:55:55;5.05;;;4.65;;
56319;SDS011;42226;42.382;23.748;2022-07-03T08:58:22;6.35;;;4.53;;
56319;SDS011;42226;42.382;23.748;2022-07-03T09:00:51;4.63;;;4.32;;
56319;SDS011;42226;42.382;23.748;2022-07-03T09:03:18;5.30;;;4.80;;
56319;SDS011;42226;42.382;23.748;2022-07-03T09:05:49;7.78;;;4.70;;
56319;SDS011;42226;42.382;23.748;2022-07-03T09:08:17;6.07;;;4.53;;
56319;SDS011;42226;42.382;23.748;2022-07-03T09:10:44;9.23;;;4.50;;
56319;SDS011;42226;42.382;23.748;2022-07-03T09:13:12;5.60;;;4.40;;
56319;SDS011;42226;42.382;23.748;2022-07-03T09:15:39;7.75;;;4.45;;
56319;SDS011;42226;42.382;23.748;2022-07-03T09:18:07;6.35;;;4.90;;
56319;SDS011;42226;42.382;23.748;2022-07-03T09:20:38;5.35;;;4.25;;
56319;SDS011;42226;42.382;23.748;2022-07-03T09:23:17;4.63;;;4.20;;
56319;SDS011;42226;42.382;23.748;2022-07-03T09:25:56;7.65;;;4.45;;
56319;SDS011;42226;42.382;23.748;2022-07-03T09:31:18;5.38;;;4.82;;
56319;SDS011;42226;42.382;23.748;2022-07-03T09:33:53;6.18;;;4.57;;
56319;SDS011;42226;42.382;23.748;2022-07-03T09:36:22;5.35;;;4.38;;
56319;SDS011;42226;42.382;23.748;2022-07-03T09:41:53;7.65;;;4.38;;
56319;SDS011;42226;42.382;23.748;2022-07-03T09:47:13;5.78;;;4.72;;
56319;SDS011;42226;42.382;23.748;2022-07-03T09:52:46;6.15;;;4.60;;
56319;SDS011;42226;42.382;23.748;2022-07-03T09:55:14;6.05;;;4.80;;
56319;SDS011;42226;42.382;23.748;2022-07-03T10:00:18;5.80;;;4.78;;
56319;SDS011;42226;42.382;23.748;2022-07-03T10:02:56;5.93;;;4.65;;
56319;SDS011;42226;42.382;23.748;2022-07-03T10:05:31;5.72;;;4.78;;
56319;SDS011;42226;42.382;23.748;2022-07-03T10:08:09;6.07;;;4.65;;
56319;SDS011;42226;42.382;23.748;2022-07-03T10:10:42;4.60;;;4.20;;
56319;SDS011;42226;42.382;23.748;2022-07-03T10:13:14;6.30;;;4.43;;
56319;SDS011;42226;42.382;23.748;2022-07-03T10:15:42;5.95;;;4.28;;
56319;SDS011;42226;42.382;23.748;2022-07-03T10:18:10;5.30;;;4.38;;
56319;SDS011;42226;42.382;23.748;2022-07-03T10:20:40;5.90;;;4.43;;
56319;SDS011;42226;42.382;23.748;2022-07-03T10:23:16;4.50;;;4.10;;
56319;SDS011;42226;42.382;23.748;2022-07-03T10:25:47;4.68;;;4.22;;
56319;SDS011;42226;42.382;23.748;2022-07-03T10:28:15;4.55;;;4.15;;
56319;SDS011;42226;42.382;23.748;2022-07-03T10:31:01;6.32;;;4.18;;
56319;SDS011;42226;42.382;23.748;2022-07-03T10:33:29;4.43;;;4.03;;
56319;SDS011;42226;42.382;23.748;2022-07-03T10:35:57;5.05;;;4.30;;
56319;SDS011;42226;42.382;23.748;2022-07-03T10:38:35;5.40;;;4.00;;
56319;SDS011;42226;42.382;23.748;2022-07-03T10:44:04;4.43;;;4.00;;
56319;SDS011;42226;42.382;23.748;2022-07-03T10:46:50;5.50;;;4.15;;
56319;SDS011;42226;42.382;23.748;2022-07-03T10:49:16;6.55;;;4.15;;
56319;SDS011;42226;42.382;23.748;2022-07-03T10:54:23;4.78;;;3.92;;
56319;SDS011;42226;42.382;23.748;2022-07-03T10:57:14;4.40;;;4.10;;
56319;SDS011;42226;42.382;23.748;2022-07-03T11:02:27;5.57;;;4.22;;
56319;SDS011;42226;42.382;23.748;2022-07-03T11:05:12;5.75;;;4.07;;
56319;SDS011;42226;42.382;23.748;2022-07-03T11:18:35;4.55;;;4.15;;
56319;SDS011;42226;42.382;23.748;2022-07-03T11:21:16;5.55;;;4.32;;
56319;SDS011;42226;42.382;23.748;2022-07-03T11:27:38;5.70;;;4.20;;
56319;SDS011;42226;42.382;23.748;2022-07-03T11:30:06;4.90;;;3.85;;
56319;SDS011;42226;42.382;23.748;2022-07-03T11:36:00;4.47;;;4.10;;
56319;SDS011;42226;42.382;23.748;2022-07-03T11:38:37;5.50;;;3.90;;
56319;SDS011;42226;42.382;23.748;2022-07-03T11:41:19;4.88;;;4.38;;
56319;SDS011;42226;42.382;23.748;2022-07-03T11:47:27;5.28;;;3.90;;
56319;SDS011;42226;42.382;23.748;2022-07-03T11:49:55;4.95;;;4.28;;
56319;SDS011;42226;42.382;23.748;2022-07-03T12:32:53;5.70;;;4.32;;
56319;SDS011;42226;42.382;23.748;2022-07-03T12:42:45;5.47;;;4.40;;
56319;SDS011;42226;42.382;23.748;2022-07-03T12:45:23;4.97;;;4.38;;
56319;SDS011;42226;42.382;23.748;2022-07-03T12:48:48;6.60;;;4.35;;
56319;SDS011;42226;42.382;23.748;2022-07-03T12:55:02;5.45;;;4.38;;
56319;SDS011;42226;42.382;23.748;2022-07-03T12:57:29;6.18;;;4.82;;
56319;SDS011;42226;42.382;23.748;2022-07-03T13:00:15;5.10;;;4.45;;
56319;SDS011;42226;42.382;23.748;2022-07-03T13:06:25;5.28;;;4.50;;
56319;SDS011;42226;42.382;23.748;2022-07-03T14:03:27;5.30;;;4.90;;
56319;SDS011;42226;42.382;23.748;2022-07-03T14:12:54;8.82;;;5.63;;
56319;SDS011;42226;42.382;23.748;2022-07-03T14:25:10;5.55;;;5.07;;
56319;SDS011;42226;42.382;23.748;2022-07-03T14:27:36;8.15;;;5.50;;
56319;SDS011;42226;42.382;23.748;2022-07-03T14:37:08;6.63;;;5.68;;
56319;SDS011;42226;42.382;23.748;2022-07-03T15:10:30;8.68;;;6.07;;
56319;SDS011;42226;42.382;23.748;2022-07-03T15:13:00;6.93;;;5.78;;
56319;SDS011;42226;42.382;23.748;2022-07-03T16:38:34;7.22;;;6.25;;
56319;SDS011;42226;42.382;23.748;2022-07-03T16:41:22;6.93;;;6.32;;
56319;SDS011;42226;42.382;23.748;2022-07-03T16:47:37;7.22;;;6.53;;
56319;SDS011;42226;42.382;23.748;2022-07-03T17:01:27;8.02;;;6.30;;
56319;SDS011;42226;42.382;23.748;2022-07-03T17:04:00;9.27;;;6.50;;
56319;SDS011;42226;42.382;23.748;2022-07-03T17:06:28;7.50;;;6.63;;
56319;SDS011;42226;42.382;23.748;2022-07-03T17:15:57;7.85;;;6.47;;
56319;SDS011;42226;42.382;23.748;2022-07-03T17:28:59;7.07;;;6.47;;
56319;SDS011;42226;42.382;23.748;2022-07-03T17:31:33;9.85;;;7.30;;
56319;SDS011;42226;42.382;23.748;2022-07-03T17:34:04;7.70;;;7.00;;
56319;SDS011;42226;42.382;23.748;2022-07-03T17:36:35;8.38;;;6.75;;
56319;SDS011;42226;42.382;23.748;2022-07-03T17:39:04;9.80;;;6.97;;
56319;SDS011;42226;42.382;23.748;2022-07-03T17:41:34;8.07;;;7.10;;
56319;SDS011;42226;42.382;23.748;2022-07-03T17:44:04;8.77;;;6.93;;
56319;SDS011;42226;42.382;23.748;2022-07-03T17:46:30;8.00;;;7.20;;
56319;SDS011;42226;42.382;23.748;2022-07-03T17:48:59;7.68;;;6.75;;
56319;SDS011;42226;42.382;23.748;2022-07-03T17:51:27;7.65;;;7.05;;
56319;SDS011;42226;42.382;23.748;2022-07-03T17:53:54;7.90;;;7.10;;
56319;SDS011;42226;42.382;23.748;2022-07-03T17:56:23;8.32;;;7.50;;
56319;SDS011;42226;42.382;23.748;2022-07-03T17:58:52;7.45;;;6.75;;
56319;SDS011;42226;42.382;23.748;2022-07-03T18:01:20;10.32;;;7.97;;
56319;SDS011;42226;42.382;23.748;2022-07-03T18:03:46;8.57;;;7.78;;
56319;SDS011;42226;42.382;23.748;2022-07-03T18:06:17;8.65;;;7.75;;
56319;SDS011;42226;42.382;23.748;2022-07-03T18:09:06;8.85;;;7.65;;
56319;SDS011;42226;42.382;23.748;2022-07-03T18:14:33;9.45;;;7.80;;
56319;SDS011;42226;42.382;23.748;2022-07-03T18:17:09;8.85;;;7.93;;
56319;SDS011;42226;42.382;23.748;2022-07-03T18:19:38;8.77;;;7.72;;
56319;SDS011;42226;42.382;23.748;2022-07-03T18:22:10;8.35;;;7.32;;
56319;SDS011;42226;42.382;23.748;2022-07-03T18:24:38;8.50;;;7.70;;
56319;SDS011;42226;42.382;23.748;2022-07-03T18:27:11;9.32;;;8.45;;
56319;SDS011;42226;42.382;23.748;2022-07-03T18:29:44;8.88;;;8.07;;
56319;SDS011;42226;42.382;23.748;2022-07-03T18:32:13;9.35;;;7.75;;
56319;SDS011;42226;42.382;23.748;2022-07-03T18:34:42;9.30;;;8.40;;
56319;SDS011;42226;42.382;23.748;2022-07-03T18:37:13;8.68;;;7.88;;
56319;SDS011;42226;42.382;23.748;2022-07-03T18:39:40;8.43;;;7.57;;
56319;SDS011;42226;42.382;23.748;2022-07-03T18:42:09;10.63;;;8.55;;
56319;SDS011;42226;42.382;23.748;2022-07-03T18:44:36;9.15;;;8.25;;
56319;SDS011;42226;42.382;23.748;2022-07-03T18:47:04;9.07;;;8.27;;
56319;SDS011;42226;42.382;23.748;2022-07-03T18:49:31;8.63;;;7.85;;
56319;SDS011;42226;42.382;23.748;2022-07-03T18:52:06;10.75;;;9.02;;
56319;SDS011;42226;42.382;23.748;2022-07-03T18:54:44;8.98;;;8.20;;
56319;SDS011;42226;42.382;23.748;2022-07-03T18:57:25;9.48;;;8.65;;
56319;SDS011;42226;42.382;23.748;2022-07-03T19:00:34;9.80;;;8.80;;
56319;SDS011;42226;42.382;23.748;2022-07-03T19:05:46;10.93;;;9.30;;
56319;SDS011;42226;42.382;23.748;2022-07-03T19:13:45;10.88;;;9.18;;
56319;SDS011;42226;42.382;23.748;2022-07-03T19:16:18;9.68;;;8.88;;
56319;SDS011;42226;42.382;23.748;2022-07-03T19:18:50;10.15;;;9.07;;
56319;SDS011;42226;42.382;23.748;2022-07-03T19:21:16;10.63;;;9.23;;
56319;SDS011;42226;42.382;23.748;2022-07-03T19:23:43;10.25;;;9.13;;
56319;SDS011;42226;42.382;23.748;2022-07-03T19:26:10;10.95;;;9.60;;
56319;SDS011;42226;42.382;23.748;2022-07-03T19:28:38;10.13;;;9.20;;
56319;SDS011;42226;42.382;23.748;2022-07-03T19:31:05;10.98;;;9.40;;
56319;SDS011;42226;42.382;23.748;2022-07-03T19:33:31;10.75;;;9.07;;
56319;SDS011;42226;42.382;23.748;2022-07-03T19:35:58;13.20;;;9.85;;
56319;SDS011;42226;42.382;23.748;2022-07-03T19:38:24;10.50;;;9.40;;
56319;SDS011;42226;42.382;23.748;2022-07-03T19:40:51;10.23;;;9.23;;
56319;SDS011;42226;42.382;23.748;2022-07-03T19:43:17;10.15;;;9.23;;
56319;SDS011;42226;42.382;23.748;2022-07-03T19:45:44;9.25;;;8.25;;
56319;SDS011;42226;42.382;23.748;2022-07-03T19:48:11;10.30;;;9.38;;
56319;SDS011;42226;42.382;23.748;2022-07-03T19:50:37;9.65;;;8.93;;
56319;SDS011;42226;42.382;23.748;2022-07-03T19:53:04;9.95;;;9.05;;
56319;SDS011;42226;42.382;23.748;2022-07-03T19:55:30;11.55;;;9.82;;
56319;SDS011;42226;42.382;23.748;2022-07-03T19:57:58;10.25;;;9.25;;
56319;SDS011;42226;42.382;23.748;2022-07-03T20:00:24;10.55;;;9.43;;
56319;SDS011;42226;42.382;23.748;2022-07-03T20:02:54;10.15;;;9.35;;
56319;SDS011;42226;42.382;23.748;2022-07-03T20:05:22;12.50;;;9.13;;
56319;SDS011;42226;42.382;23.748;2022-07-03T20:07:49;10.20;;;9.20;;
56319;SDS011;42226;42.382;23.748;2022-07-03T20:10:16;10.15;;;8.75;;
56319;SDS011;42226;42.382;23.748;2022-07-03T20:12:42;10.93;;;8.63;;
56319;SDS011;42226;42.382;23.748;2022-07-03T20:15:09;10.35;;;9.15;;
56319;SDS011;42226;42.382;23.748;2022-07-03T20:17:36;10.25;;;8.75;;
56319;SDS011;42226;42.382;23.748;2022-07-03T20:20:05;11.25;;;7.63;;
56319;SDS011;42226;42.382;23.748;2022-07-03T20:22:33;8.95;;;7.40;;
56319;SDS011;42226;42.382;23.748;2022-07-03T20:24:59;8.20;;;7.40;;
56319;SDS011;42226;42.382;23.748;2022-07-03T20:27:26;7.90;;;7.10;;
56319;SDS011;42226;42.382;23.748;2022-07-03T20:29:52;7.60;;;6.85;;
56319;SDS011;42226;42.382;23.748;2022-07-03T20:32:20;8.13;;;7.35;;
56319;SDS011;42226;42.382;23.748;2022-07-03T20:34:46;7.50;;;6.70;;
56319;SDS011;42226;42.382;23.748;2022-07-03T20:37:13;9.82;;;6.97;;
56319;SDS011;42226;42.382;23.748;2022-07-03T20:39:42;6.72;;;6.13;;
56319;SDS011;42226;42.382;23.748;2022-07-03T20:42:09;8.07;;;5.88;;
56319;SDS011;42226;42.382;23.748;2022-07-03T20:44:36;8.35;;;5.85;;
56319;SDS011;42226;42.382;23.748;2022-07-03T20:47:04;7.82;;;5.60;;
56319;SDS011;42226;42.382;23.748;2022-07-03T20:49:31;6.13;;;5.53;;
56319;SDS011;42226;42.382;23.748;2022-07-03T20:51:58;6.18;;;4.88;;
56319;SDS011;42226;42.382;23.748;2022-07-03T20:54:25;5.93;;;5.40;;
56319;SDS011;42226;42.382;23.748;2022-07-03T20:56:52;6.88;;;5.40;;
56319;SDS011;42226;42.382;23.748;2022-07-03T20:59:19;6.10;;;5.20;;
56319;SDS011;42226;42.382;23.748;2022-07-03T21:01:46;7.05;;;5.30;;
56319;SDS011;42226;42.382;23.748;2022-07-03T21:04:12;6.32;;;4.93;;
56319;SDS011;42226;42.382;23.748;2022-07-03T21:06:39;5.90;;;5.30;;
56319;SDS011;42226;42.382;23.748;2022-07-03T21:09:06;8.57;;;5.82;;
56319;SDS011;42226;42.382;23.748;2022-07-03T21:11:33;7.97;;;5.60;;